Aviation Digital Data Service (ADDS)

Output produced by METARs form (0742 UTC 24 May 2018)
found at http://www.aviationweather.gov/adds/metars/
 
SEGU 240350Z 2406/2506 22008KT 9999 BKN026 OVC100 
     TEMPO 2406/2409 RA 
     FM241600 15005KT 9999 SCT026 BKN100 
     FM250000 22008KT 9999 BKN023 BKN100 
     TEMPO 2500/2503 RA TX30/2420Z TN23/2410Z
       
SELT 240415Z 2406/2506 20004KT 9999 SCT005 BKN030 
     TEMPO 2409/2412 RA 
     FM241400 18015KT 9999 SCT030 BKN100 
     FM242100 16008KT 9999 BKN030 
     FM250300 18004KT 9999 SCT005 BKN030 TX19/2419Z TN09/2411Z
       
SEMT 240415Z 2406/2506 21004KT 9999 FEW026 BKN100 
     FM241900 21008KT 9999 SCT026 SCT100 
     FM250000 20003KT 9999 SCT020 BKN100 TX30/2420Z TN24/2410Z
       
SEQM 240415Z 2406/2506 03003KT 9999 SCT003 BKN020 
     FM241300 VRB03KT 9999 SCT030 BKN080 
     FM241900 36012KT 9999 BKN030 SCT100 
     FM242300 01005KT 9999 FEW005 BKN020 TX21/2419Z TN12/2411